Time;durP1;ratioP1;P1;durP2;ratioP2;P2;SDS_P1;SDS_P2;PMS_P1;PMS_P2;Temp;Humidity;BMP_temperature;BMP_pressure;BME280_temperature;BME280_humidity;BME280_pressure;Samples;Min_cycle;Max_cycle;Signal;HPM_P1;HPM_P2
2022/09/28 00:01:44;;;;;;;21.85;12.65;;;;;;;10.08;93.56;99514.03;5019300;28;20065;-75
2022/09/28 00:04:11;;;;;;;19.02;12.82;;;;;;;10.09;93.79;99507.22;5021122;28;20534;-75
2022/09/28 00:06:37;;;;;;;18.90;11.77;;;;;;;10.10;94.42;99511.63;5025241;28;20453;-75
2022/09/28 00:09:03;;;;;;;22.30;12.38;;;;;;;10.14;93.92;99506.78;5027258;28;20041;-75
2022/09/28 00:11:28;;;;;;;23.63;13.40;;;;;;;10.07;94.85;99501.22;5025523;28;20116;-75
2022/09/28 00:13:57;;;;;;;25.70;13.60;;;;;;;10.10;94.44;99506.81;5023580;28;20091;-75
2022/09/28 00:16:25;;;;;;;18.73;12.65;;;;;;;10.11;94.64;99502.00;5023555;28;20509;-75
2022/09/28 00:18:51;;;;;;;20.02;11.85;;;;;;;10.07;94.17;99506.81;5025268;28;20056;-74
2022/09/28 00:21:26;;;;;;;22.02;13.50;;;;;;;10.04;95.56;99504.84;5021448;28;20049;-75
2022/09/28 00:24:11;;;;;;;21.55;12.98;;;;;;;10.09;94.46;99515.59;5025185;28;20487;-74
2022/09/28 00:26:39;;;;;;;20.42;13.38;;;;;;;9.99;95.05;99508.84;5024717;28;20021;-75
2022/09/28 00:29:07;;;;;;;24.15;13.63;;;;;;;10.09;94.34;99510.00;5024545;28;20055;-75
2022/09/28 00:31:33;;;;;;;26.70;15.02;;;;;;;10.11;95.04;99511.19;5023722;28;20029;-75
2022/09/28 00:34:00;;;;;;;22.42;13.23;;;;;;;10.13;94.34;99516.38;5022669;28;20034;-74
2022/09/28 00:36:27;;;;;;;23.90;15.27;;;;;;;9.96;95.20;99507.69;5020252;28;20517;-75
2022/09/28 00:38:55;;;;;;;24.90;14.27;;;;;;;10.00;95.32;99509.66;5018207;28;20037;-75
2022/09/28 00:41:21;;;;;;;25.75;15.38;;;;;;;9.71;97.24;99509.78;5023915;28;20125;-75
2022/09/28 00:43:49;;;;;;;28.02;15.95;;;;;;;9.54;97.93;99508.66;5024235;28;20480;-75
2022/09/28 00:46:20;;;;;;;23.80;14.18;;;;;;;9.75;96.30;99497.41;5024248;28;20021;-74
2022/09/28 00:48:55;;;;;;;30.33;17.17;;;;;;;9.56;97.41;99495.88;5023005;28;20041;-75
2022/09/28 00:51:22;;;;;;;25.00;15.55;;;;;;;9.83;95.98;99498.16;5018573;28;20144;-75
2022/09/28 00:53:49;;;;;;;26.70;14.75;;;;;;;9.94;94.89;99492.53;5022650;28;20037;-74
2022/09/28 00:56:19;;;;;;;24.70;15.35;;;;;;;9.81;95.75;99497.78;5025405;28;20037;-75
2022/09/28 00:58:49;;;;;;;27.50;14.68;;;;;;;9.86;95.12;99491.75;5026554;28;20048;-74
2022/09/28 01:01:14;;;;;;;27.55;14.77;;;;;;;9.62;96.96;99487.09;5020370;28;20038;-74
2022/09/28 01:03:44;;;;;;;28.65;16.65;;;;;;;9.79;95.73;99483.41;5022177;28;20024;-75
2022/09/28 01:06:13;;;;;;;32.25;16.63;;;;;;;9.79;95.91;99494.59;5023682;28;20150;-74
2022/09/28 01:08:40;;;;;;;25.40;15.52;;;;;;;9.80;95.41;99490.59;5024761;28;20069;-75
2022/09/28 01:11:05;;;;;;;29.02;16.38;;;;;;;9.81;95.46;99483.00;5024100;28;20033;-75
2022/09/28 01:13:32;;;;;;;25.33;14.88;;;;;;;9.87;94.95;99486.97;5024656;28;20033;-75
2022/09/28 01:16:16;;;;;;;29.38;15.63;;;;;;;9.93;94.92;99483.34;5025647;28;20033;-74
2022/09/28 01:19:22;;;;;;;28.83;16.25;;;;;;;9.78;95.45;99473.44;5024715;28;20116;-74
2022/09/28 01:22:26;;;;;;;33.80;16.90;;;;;;;9.92;94.72;99476.16;5024757;28;20037;-75
2022/09/28 01:25:16;;;;;;;26.45;14.77;;;;;;;9.83;94.90;99475.81;5023571;28;20216;-74
2022/09/28 01:27:48;;;;;;;27.65;16.40;;;;;;;9.91;93.98;99480.16;5022168;28;20029;-74
2022/09/28 01:30:17;;;;;;;31.90;17.35;;;;;;;9.79;94.86;99475.03;5019349;28;20065;-74
2022/09/28 01:32:51;;;;;;;29.10;15.30;;;;;;;9.88;94.49;99472.56;5018916;28;20060;-75
2022/09/28 01:35:21;;;;;;;27.55;16.38;;;;;;;9.88;94.40;99472.56;5022210;28;20102;-75
2022/09/28 01:37:59;;;;;;;27.67;16.63;;;;;;;9.92;94.04;99473.34;5020292;28;20042;-74
2022/09/28 01:40:27;;;;;;;29.75;17.50;;;;;;;9.85;93.94;99475.41;5022056;28;20032;-75
2022/09/28 01:43:08;;;;;;;31.48;16.65;;;;;;;9.89;94.13;99478.97;5023612;28;20037;-75
2022/09/28 01:45:47;;;;;;;31.83;17.77;;;;;;;9.88;94.53;99480.97;5028141;28;20029;-75
2022/09/28 01:48:20;;;;;;;28.67;16.40;;;;;;;9.78;94.55;99470.63;5018989;28;20449;-75
2022/09/28 01:50:50;;;;;;;30.98;17.40;;;;;;;9.81;94.31;99483.81;5022138;28;20056;-75
2022/09/28 01:53:21;;;;;;;32.33;16.65;;;;;;;9.83;93.95;99481.41;5020958;28;20045;-75
2022/09/28 01:55:51;;;;;;;31.15;15.93;;;;;;;9.72;95.01;99475.06;5020978;28;20478;-75
2022/09/28 01:58:19;;;;;;;31.15;18.08;;;;;;;9.76;94.88;99470.25;5022679;28;20887;-74
2022/09/28 02:00:52;;;;;;;32.53;17.30;;;;;;;9.78;94.40;99470.63;5017743;28;20049;-75
2022/09/28 02:03:20;;;;;;;;;;;;;;;9.71;94.15;99471.47;5021077;28;20155;-75
2022/09/28 02:06:02;;;;;;;35.55;19.30;;;;;;;9.64;95.16;99465.13;5021345;28;19923;-74
2022/09/28 02:08:36;;;;;;;29.88;17.35;;;;;;;9.71;94.87;99468.66;5020256;28;20072;-75
2022/09/28 02:11:12;;;;;;;34.08;17.90;;;;;;;9.75;94.79;99468.66;5022038;28;21860;-75
2022/09/28 02:13:53;;;;;;;37.72;18.13;;;;;;;9.81;94.35;99464.25;5020629;28;20041;-75
2022/09/28 02:16:33;;;;;;;35.40;18.73;;;;;;;9.82;94.51;99463.03;5020772;28;20124;-75
2022/09/28 02:18:59;;;;;;;39.67;19.50;;;;;;;9.77;94.53;99471.84;5028764;28;20036;-76
2022/09/28 02:21:30;;;;;;;43.05;19.95;;;;;;;9.74;94.68;99467.09;5027548;28;20034;-75
2022/09/28 02:24:01;;;;;;;37.95;18.45;;;;;;;9.79;94.37;99463.84;5025611;28;20037;-74
2022/09/28 02:26:31;;;;;;;37.75;19.52;;;;;;;9.84;93.83;99459.84;5022777;28;20038;-75
2022/09/28 02:28:58;;;;;;;38.15;20.00;;;;;;;9.76;94.26;99467.44;5025367;28;20044;-75
2022/09/28 02:31:24;;;;;;;43.58;20.50;;;;;;;9.76;94.16;99464.66;5030496;28;20041;-75
2022/09/28 02:33:52;;;;;;;40.08;20.98;;;;;;;9.81;94.46;99472.63;5027270;28;20033;-75
2022/09/28 02:36:17;;;;;;;34.95;18.60;;;;;;;9.85;94.58;99476.19;5025663;28;20370;-75
2022/09/28 02:38:43;;;;;;;44.25;21.00;;;;;;;9.69;95.16;99473.09;5025476;28;20031;-74
2022/09/28 02:41:33;;;;;;;40.67;20.23;;;;;;;9.74;94.86;99478.25;5025324;28;20036;-75
2022/09/28 02:44:07;;;;;;;35.38;19.30;;;;;;;9.84;94.29;99488.56;5018929;28;20507;-75
2022/09/28 02:47:03;;;;;;;46.33;21.27;;;;;;;9.79;94.90;99480.63;5022093;28;20397;-75
2022/09/28 02:49:38;;;;;;;44.00;21.42;;;;;;;9.81;94.45;99483.81;5019257;28;20393;-75
2022/09/28 02:52:14;;;;;;;34.95;19.75;;;;;;;9.82;94.18;99485.38;5018181;28;20441;-75
2022/09/28 02:55:01;;;;;;;39.80;20.48;;;;;;;9.75;94.67;99485.44;5019566;28;20511;-74
2022/09/28 02:57:39;;;;;;;38.83;21.40;;;;;;;9.76;94.99;99487.81;5017980;28;20503;-75
2022/09/28 03:00:16;;;;;;;43.15;21.38;;;;;;;9.83;94.45;99492.56;5017436;28;20037;-75
2022/09/28 03:02:59;;;;;;;38.65;21.15;;;;;;;9.86;94.14;99497.34;5016205;28;20076;-75
2022/09/28 03:05:36;;;;;;;39.47;20.52;;;;;;;9.63;95.56;99505.44;5021717;28;20033;-76
2022/09/28 03:08:09;;;;;;;34.65;19.63;;;;;;;9.65;95.89;99509.41;5033976;28;20033;-75
2022/09/28 03:10:47;;;;;;;39.55;21.33;;;;;;;9.66;95.41;99507.44;5020417;28;20543;-75
2022/09/28 03:13:15;;;;;;;39.67;21.58;;;;;;;9.75;94.39;99502.19;5017042;28;20026;-75
2022/09/28 03:15:41;;;;;;;35.40;19.27;;;;;;;9.75;94.63;99508.56;5017065;28;20040;-75
2022/09/28 03:18:07;;;;;;;34.78;18.50;;;;;;;9.70;94.91;99505.41;5024432;28;20045;-75
2022/09/28 03:20:33;;;;;;;35.58;18.70;;;;;;;9.52;95.64;99506.25;5020113;28;20084;-75
2022/09/28 03:22:59;;;;;;;33.55;18.17;;;;;;;9.56;96.11;99517.44;5019786;28;20493;-75
2022/09/28 03:25:25;;;;;;;35.97;18.75;;;;;;;9.59;95.35;99513.03;5023113;28;20057;-75
2022/09/28 03:27:50;;;;;;;36.08;17.85;;;;;;;9.64;94.93;99516.22;5022426;28;20065;-75
2022/09/28 03:30:16;;;;;;;29.17;16.63;;;;;;;9.67;93.97;99512.59;5024175;28;20036;-75
2022/09/28 03:32:41;;;;;;;32.97;16.33;;;;;;;9.66;95.05;99510.22;5028866;28;20095;-74
2022/09/28 03:35:08;;;;;;;27.23;16.17;;;;;;;9.51;95.07;99509.47;5027969;28;20489;-75
2022/09/28 03:37:34;;;;;;;28.63;15.25;;;;;;;9.63;93.95;99511.03;5024811;28;20036;-75
2022/09/28 03:39:59;;;;;;;29.08;15.95;;;;;;;9.67;94.02;99509.81;5031401;28;20029;-74
2022/09/28 03:42:25;;;;;;;24.58;14.40;;;;;;;9.65;94.39;99497.44;5022550;28;20033;-75
2022/09/28 03:44:50;;;;;;;23.80;14.93;;;;;;;9.62;93.90;99510.22;5033413;28;20037;-75
2022/09/28 03:47:16;;;;;;;27.80;16.05;;;;;;;9.63;94.50;99500.63;5023467;28;20069;-75
2022/09/28 03:49:42;;;;;;;26.10;15.13;;;;;;;9.62;93.66;99498.28;5024563;28;20034;-75
2022/09/28 03:52:08;;;;;;;26.63;14.90;;;;;;;9.69;93.89;99506.59;5027077;28;20027;-74
2022/09/28 03:54:33;;;;;;;24.83;14.63;;;;;;;9.65;93.75;99497.44;5025417;28;20037;-75
2022/09/28 03:56:59;;;;;;;24.70;14.15;;;;;;;9.56;93.96;99498.66;5027347;28;20063;-75
2022/09/28 03:59:24;;;;;;;21.40;13.55;;;;;;;9.62;93.84;99495.47;5028050;28;20060;-75
2022/09/28 04:01:50;;;;;;;26.35;15.02;;;;;;;9.64;93.41;99501.44;5017608;28;20481;-75
2022/09/28 04:04:16;;;;;;;26.10;13.70;;;;;;;9.62;93.42;99498.28;5021706;28;20087;-75
2022/09/28 04:06:41;;;;;;;21.30;13.95;;;;;;;9.66;93.37;99496.25;5020656;28;20038;-75
2022/09/28 04:09:07;;;;;;;22.50;12.10;;;;;;;9.66;93.63;99499.84;5018012;28;20033;-75
2022/09/28 04:11:33;;;;;;;21.20;11.75;;;;;;;9.64;93.10;99504.25;5025287;28;20112;-74
2022/09/28 04:13:58;;;;;;;19.75;12.23;;;;;;;9.65;92.41;99487.06;5022081;28;20045;-75
2022/09/28 04:16:24;;;;;;;22.42;13.18;;;;;;;9.62;93.57;99499.06;5020633;28;20059;-75
2022/09/28 04:18:49;;;;;;;21.58;11.63;;;;;;;9.62;93.57;99498.28;5028213;28;20037;-74
2022/09/28 04:21:17;;;;;;;20.98;13.07;;;;;;;9.69;92.89;99490.63;5025992;28;20178;-75
2022/09/28 04:23:43;;;;;;;22.85;13.63;;;;;;;9.53;94.11;99501.50;5023186;28;20176;-75
2022/09/28 04:26:18;;;;;;;18.10;11.60;;;;;;;9.60;93.33;99503.47;5020423;28;20159;-75
2022/09/28 04:31:35;;;;;;;22.75;12.63;;;;;;;9.52;94.26;99505.47;5021659;28;20060;-75
2022/09/28 04:34:00;;;;;;;20.60;11.73;;;;;;;9.57;93.27;99496.66;5025938;28;20041;-75
2022/09/28 04:36:26;;;;;;;20.63;13.63;;;;;;;9.58;93.00;99503.84;5019616;28;20033;-74
2022/09/28 04:38:51;;;;;;;23.08;12.82;;;;;;;9.52;93.73;99500.69;5021488;28;20140;-75
2022/09/28 04:41:17;;;;;;;20.15;12.32;;;;;;;9.54;93.42;99509.44;5020971;28;20036;-75
2022/09/28 04:43:42;;;;;;;18.85;11.60;;;;;;;9.51;93.16;99504.69;5019472;28;20511;-75
2022/09/28 04:46:09;;;;;;;19.52;11.70;;;;;;;9.52;93.62;99503.47;5024497;28;20579;-75
2022/09/28 04:48:36;;;;;;;20.48;12.02;;;;;;;9.50;93.61;99500.28;5020364;28;20060;-75
2022/09/28 04:51:01;;;;;;;18.33;11.75;;;;;;;9.48;93.94;99502.69;5022941;28;20041;-75
2022/09/28 04:53:28;;;;;;;21.70;12.73;;;;;;;9.48;93.57;99505.47;5016198;28;20083;-75
2022/09/28 04:55:59;;;;;;;18.00;10.73;;;;;;;9.52;94.13;99497.09;5019105;28;20022;-75
2022/09/28 04:58:25;;;;;;;22.55;12.13;;;;;;;9.55;93.23;99505.47;5023130;28;20064;-75
2022/09/28 05:00:52;;;;;;;19.83;11.88;;;;;;;9.49;93.64;99501.50;5020876;28;20573;-75
2022/09/28 05:03:18;;;;;;;20.17;11.80;;;;;;;9.36;94.02;99498.34;5016521;28;20029;-75
2022/09/28 05:05:44;;;;;;;21.13;11.77;;;;;;;9.43;94.13;99510.69;5016579;28;20042;-75
2022/09/28 05:08:10;;;;;;;19.77;11.40;;;;;;;9.48;94.10;99511.06;5015999;28;20393;-74
2022/09/28 05:10:35;;;;;;;19.33;11.98;;;;;;;9.35;94.32;99513.50;5024977;28;20030;-75
2022/09/28 05:13:01;;;;;;;20.13;11.48;;;;;;;9.31;94.67;99517.50;5015624;28;20052;-75
2022/09/28 05:15:26;;;;;;;18.77;11.68;;;;;;;9.33;94.72;99521.47;5016375;28;20373;-75
2022/09/28 05:17:52;;;;;;;19.23;11.93;;;;;;;9.40;94.35;99525.47;5021379;28;20095;-74
2022/09/28 05:20:17;;;;;;;17.15;10.82;;;;;;;9.37;94.46;99515.91;5020462;28;20392;-75
2022/09/28 05:22:43;;;;;;;19.30;11.95;;;;;;;9.43;93.88;99516.28;5019779;28;20021;-74
2022/09/28 05:25:08;;;;;;;21.15;11.68;;;;;;;9.41;93.59;99516.69;5020657;28;20052;-76
2022/09/28 05:27:34;;;;;;;17.58;10.88;;;;;;;9.43;94.31;99519.88;5020024;28;20054;-75
2022/09/28 05:29:59;;;;;;;19.23;11.05;;;;;;;9.19;95.93;99523.50;5016916;28;20037;-75
2022/09/28 05:32:24;;;;;;;18.58;11.50;;;;;;;9.28;95.67;99521.13;5014376;28;20049;-76
2022/09/28 05:34:50;;;;;;;19.25;11.68;;;;;;;9.22;95.79;99520.72;5020241;28;20041;-73
2022/09/28 05:37:15;;;;;;;23.95;11.48;;;;;;;9.22;95.71;99514.34;5015070;28;20102;-73
2022/09/28 05:39:41;;;;;;;19.80;11.55;;;;;;;9.38;94.88;99523.06;5022724;28;20482;-76
2022/09/28 05:42:06;;;;;;;18.75;10.60;;;;;;;9.31;95.06;99509.91;5021434;28;20470;-75
2022/09/28 05:44:32;;;;;;;22.65;12.80;;;;;;;9.23;95.18;99516.72;5030940;28;20032;-76
2022/09/28 05:46:57;;;;;;;23.73;13.15;;;;;;;9.28;95.32;99518.31;5012918;28;20174;-75
2022/09/28 05:49:22;;;;;;;21.55;11.88;;;;;;;9.31;94.56;99517.50;5019278;28;20030;-76
2022/09/28 05:51:48;;;;;;;23.13;12.43;;;;;;;9.37;94.35;99510.31;5012562;28;20795;-76
2022/09/28 05:54:13;;;;;;;25.10;12.98;;;;;;;9.16;95.79;99511.94;5017068;28;20132;-76
2022/09/28 05:56:38;;;;;;;21.23;11.40;;;;;;;9.29;95.16;99515.09;5019684;28;20037;-75
2022/09/28 05:59:05;;;;;;;19.42;11.40;;;;;;;9.24;95.79;99512.75;5014900;28;20056;-76
2022/09/28 06:01:30;;;;;;;23.23;12.05;;;;;;;9.26;95.20;99518.72;5014341;28;20061;-75
2022/09/28 06:03:55;;;;;;;21.00;11.73;;;;;;;9.31;95.28;99520.28;5021760;28;20140;-75
2022/09/28 06:06:21;;;;;;;21.50;10.93;;;;;;;9.37;95.78;99510.31;5016523;28;20048;-75
2022/09/28 06:08:47;;;;;;;19.92;11.65;;;;;;;9.41;95.16;99522.28;5013870;28;20380;-75
2022/09/28 06:11:12;;;;;;;21.02;10.80;;;;;;;9.43;96.00;99528.25;5020734;28;20025;-75
2022/09/28 06:13:38;;;;;;;24.02;11.68;;;;;;;9.43;96.26;99519.09;5023337;28;20116;-76
2022/09/28 06:16:06;;;;;;;22.73;11.15;;;;;;;9.33;95.83;99526.28;5020165;28;20040;-76
2022/09/28 06:18:32;;;;;;;17.48;10.43;;;;;;;9.27;96.64;99527.88;5022584;28;20029;-75
2022/09/28 06:20:57;;;;;;;20.73;12.00;;;;;;;9.28;96.44;99526.69;5024479;28;20044;-75
2022/09/28 06:23:22;;;;;;;21.33;10.63;;;;;;;9.25;96.62;99536.66;5024523;28;20021;-75
2022/09/28 06:25:48;;;;;;;24.40;12.25;;;;;;;9.20;97.14;99522.31;5020946;28;20037;-76
2022/09/28 06:28:13;;;;;;;21.75;12.00;;;;;;;9.30;97.68;99532.69;5028454;28;20037;-76
2022/09/28 06:30:40;;;;;;;18.23;10.98;;;;;;;9.43;96.09;99538.63;5024912;28;20385;-76
2022/09/28 06:33:08;;;;;;;20.48;11.20;;;;;;;9.30;96.81;99538.25;5027629;28;20026;-76
2022/09/28 06:35:34;;;;;;;24.67;10.13;;;;;;;9.45;95.13;99545.41;5024456;28;20037;-76
2022/09/28 06:38:00;;;;;;;16.95;9.73;;;;;;;9.37;95.59;99538.25;5023568;28;20083;-76
2022/09/28 06:40:27;;;;;;;16.48;9.30;;;;;;;9.41;95.29;99544.59;5025861;28;20033;-76
2022/09/28 06:43:00;;;;;;;15.65;9.82;;;;;;;9.41;95.90;99549.41;5028269;28;20033;-75
2022/09/28 06:45:28;;;;;;;20.23;11.13;;;;;;;9.49;94.64;99551.78;5042674;28;20707;-76
2022/09/28 06:47:55;;;;;;;18.42;10.93;;;;;;;9.39;95.47;99549.00;5020114;28;20040;-75
2022/09/28 06:50:21;;;;;;;14.93;9.75;;;;;;;9.37;95.49;99546.63;5025431;28;20041;-76
2022/09/28 06:52:52;;;;;;;15.38;8.55;;;;;;;9.43;94.96;99545.00;5025652;28;20416;-76
2022/09/28 06:55:17;;;;;;;15.60;9.40;;;;;;;9.49;94.99;99557.38;5026703;28;20029;-76
2022/09/28 06:57:43;;;;;;;18.42;9.13;;;;;;;9.49;94.82;99560.16;5026428;28;20405;-76
2022/09/28 07:00:09;;;;;;;14.93;9.02;;;;;;;9.52;94.69;99555.75;5026694;28;20032;-76
2022/09/28 07:02:34;;;;;;;15.82;9.55;;;;;;;9.54;95.23;99554.16;5015173;28;20037;-76
2022/09/28 07:05:00;;;;;;;14.57;9.60;;;;;;;9.52;94.88;99547.38;5028491;28;20036;-76
2022/09/28 07:07:25;;;;;;;15.98;8.25;;;;;;;9.49;94.96;99548.97;5019421;28;20788;-76
2022/09/28 07:09:54;;;;;;;15.48;8.63;;;;;;;9.34;96.19;99555.81;5019851;28;20030;-76
2022/09/28 07:12:22;;;;;;;15.60;8.88;;;;;;;9.29;96.91;99553.41;5015503;28;20030;-76
2022/09/28 07:14:48;;;;;;;12.45;8.40;;;;;;;9.29;96.81;99564.56;5023188;28;20040;-76
2022/09/28 07:17:14;;;;;;;13.20;8.18;;;;;;;9.49;96.11;99568.53;5022320;28;20029;-76
2022/09/28 07:19:40;;;;;;;17.63;9.63;;;;;;;9.41;96.89;99566.16;5023986;28;20055;-76
2022/09/28 07:22:05;;;;;;;13.45;7.97;;;;;;;9.47;95.66;99576.53;5023108;28;20706;-76
2022/09/28 07:24:30;;;;;;;16.63;9.35;;;;;;;9.32;97.22;99572.16;5024553;28;20063;-76
2022/09/28 07:26:56;;;;;;;13.93;8.45;;;;;;;9.09;98.43;99573.38;5025696;28;20036;-76
2022/09/28 07:29:21;;;;;;;18.05;8.02;;;;;;;9.01;99.08;99571.78;5024814;28;20034;-75
2022/09/28 07:31:47;;;;;;;14.60;9.20;;;;;;;9.22;98.00;99582.13;5023997;28;20037;-76
2022/09/28 07:34:12;;;;;;;12.23;7.97;;;;;;;9.25;97.41;99578.53;5025513;28;20044;-75
2022/09/28 07:36:38;;;;;;;13.75;8.55;;;;;;;9.36;96.65;99578.53;5019375;28;20025;-76
2022/09/28 07:39:04;;;;;;;14.82;8.40;;;;;;;9.35;97.00;99582.53;5028620;28;20037;-76
2022/09/28 07:41:32;;;;;;;16.38;8.95;;;;;;;9.39;97.43;99583.31;5027389;28;20092;-76
2022/09/28 07:44:04;;;;;;;13.88;7.90;;;;;;;9.44;96.92;99594.06;5025261;28;20443;-76
2022/09/28 07:46:36;;;;;;;12.60;6.57;;;;;;;9.36;97.34;99593.31;5022207;28;20385;-76
2022/09/28 07:49:05;;;;;;;13.15;8.10;;;;;;;9.39;97.69;99585.31;5023574;28;20378;-76
2022/09/28 07:51:32;;;;;;;11.35;7.40;;;;;;;9.52;96.84;99590.06;5019041;28;20049;-76
2022/09/28 07:53:58;;;;;;;12.25;7.10;;;;;;;9.57;96.12;99592.47;5016911;28;20481;-76
2022/09/28 07:56:24;;;;;;;13.15;8.38;;;;;;;9.44;97.40;99593.28;5018514;28;20152;-76
2022/09/28 07:58:50;;;;;;;13.75;7.32;;;;;;;9.60;96.22;99595.66;5019865;28;20057;-76
2022/09/28 08:01:15;;;;;;;11.07;7.05;;;;;;;9.63;95.80;99592.03;5016617;28;20054;-76
2022/09/28 08:03:45;;;;;;;11.15;6.25;;;;;;;9.61;96.11;99598.03;5022210;28;20021;-76
2022/09/28 08:06:13;;;;;;;14.07;8.32;;;;;;;9.22;100.00;99606.47;5017328;28;20025;-76
2022/09/28 08:08:43;;;;;;;12.57;7.45;;;;;;;9.18;99.74;99608.47;5023751;28;20029;-76
2022/09/28 08:11:14;;;;;;;10.07;6.45;;;;;;;9.33;98.87;99607.25;5025206;28;20049;-76
2022/09/28 08:13:40;;;;;;;13.23;7.55;;;;;;;9.30;99.92;99608.88;5017553;28;20029;-76
2022/09/28 08:16:07;;;;;;;10.23;6.47;;;;;;;9.55;97.29;99608.03;5017548;28;20037;-76
2022/09/28 08:18:33;;;;;;;13.80;7.40;;;;;;;9.51;98.67;99604.47;5023556;28;20022;-76
2022/09/28 08:23:43;;;;;;;7.78;5.15;;;;;;;9.56;98.51;99618.78;5024932;28;20052;-76
2022/09/28 08:26:08;;;;;;;10.77;7.15;;;;;;;9.70;96.84;99617.19;5029389;28;20957;-75
2022/09/28 08:28:34;;;;;;;8.50;5.72;;;;;;;9.75;96.75;99614.75;5033311;28;20033;-76
2022/09/28 08:31:06;;;;;;;11.00;7.03;;;;;;;9.57;100.00;99626.00;5026675;28;20033;-76
2022/09/28 08:33:32;;;;;;;10.35;6.15;;;;;;;9.63;100.00;99631.16;5027784;28;20025;-76
2022/09/28 08:35:59;;;;;;;11.57;5.75;;;;;;;9.69;99.00;99633.13;5029799;28;20393;-76
2022/09/28 08:38:25;;;;;;;9.02;6.38;;;;;;;9.84;96.94;99633.91;5022194;28;20540;-76
2022/09/28 08:40:57;;;;;;;9.10;6.07;;;;;;;9.72;98.99;99632.34;5031565;28;20550;-76
2022/09/28 08:43:43;;;;;;;11.70;5.63;;;;;;;9.76;99.86;99637.91;5031542;28;20485;-76
2022/09/28 08:46:11;;;;;;;8.93;5.30;;;;;;;9.86;96.65;99637.09;5026163;28;20742;-76
2022/09/28 08:48:47;;;;;;;7.35;4.15;;;;;;;9.87;96.99;99633.09;5019234;28;20130;-76
2022/09/28 08:51:27;;;;;;;8.90;5.53;;;;;;;9.94;97.18;99640.66;5022473;28;20026;-76
2022/09/28 08:54:23;;;;;;;7.45;4.60;;;;;;;9.95;97.73;99637.47;5022384;28;20124;-75
2022/09/28 08:56:57;;;;;;;7.15;4.30;;;;;;;9.93;97.03;99639.88;5026188;28;20034;-77
2022/09/28 08:59:27;;;;;;;6.63;4.63;;;;;;;10.05;98.65;99637.84;5027461;28;20054;-76
2022/09/28 09:01:58;;;;;;;8.82;4.82;;;;;;;10.08;98.79;99637.03;5022908;28;20057;-76
2022/09/28 09:04:24;;;;;;;8.40;4.63;;;;;;;10.07;98.86;99647.41;5025520;28;20596;-76
2022/09/28 09:07:05;;;;;;;8.13;4.50;;;;;;;10.06;97.34;99650.63;5017978;28;20026;-76
2022/09/28 09:09:39;;;;;;;5.40;4.03;;;;;;;10.08;96.65;99653.81;5020547;28;20178;-74
2022/09/28 09:12:30;;;;;;;7.40;4.15;;;;;;;10.17;98.96;99657.75;5016674;28;20498;-75
2022/09/28 09:15:04;;;;;;;9.85;5.07;;;;;;;10.27;98.45;99650.53;5015944;28;20056;-73
2022/09/28 09:17:46;;;;;;;8.77;4.35;;;;;;;10.29;98.21;99658.53;5021196;28;20037;-74
2022/09/28 09:20:23;;;;;;;5.80;3.15;;;;;;;10.47;99.89;99659.25;5022848;28;20503;-75
2022/09/28 09:23:00;;;;;;;5.53;3.03;;;;;;;10.45;96.44;99660.88;5027098;28;20130;-74
2022/09/28 09:25:27;;;;;;;6.20;3.10;;;;;;;10.40;94.80;99658.50;5023968;28;20049;-75
2022/09/28 09:28:01;;;;;;;4.70;2.42;;;;;;;10.44;95.66;99665.69;5021986;28;20395;-74
2022/09/28 09:30:39;;;;;;;4.78;2.40;;;;;;;10.44;95.38;99659.28;5022348;28;20138;-74
2022/09/28 09:33:33;;;;;;;4.07;2.47;;;;;;;10.50;92.97;99663.25;5017312;28;20122;-75
2022/09/28 09:36:33;;;;;;;7.35;3.10;;;;;;;10.82;93.75;99656.69;5020317;28;20085;-75
2022/09/28 09:39:22;;;;;;;6.05;2.13;;;;;;;10.73;92.98;99668.31;5026277;28;20029;-74
2022/09/28 09:42:26;;;;;;;2.88;1.70;;;;;;;10.81;91.11;99666.28;5022278;28;20497;-75
2022/09/28 09:45:24;;;;;;;3.40;1.02;;;;;;;10.95;90.10;99661.38;5024047;28;20068;-75
2022/09/28 09:47:59;;;;;;;2.08;1.40;;;;;;;10.86;91.70;99665.88;5020446;28;20034;-74
2022/09/28 09:50:31;;;;;;;8.02;1.45;;;;;;;11.05;92.70;99672.94;5020515;28;20593;-73
2022/09/28 09:53:01;;;;;;;4.00;1.63;;;;;;;11.01;92.92;99672.97;5024055;28;20443;-75
2022/09/28 09:55:39;;;;;;;1.73;1.10;;;;;;;11.06;92.50;99669.72;5023168;28;20466;-75
2022/09/28 09:58:25;;;;;;;2.65;0.88;;;;;;;11.03;90.74;99667.75;5018717;28;20359;-76
2022/09/28 10:00:54;;;;;;;1.90;1.05;;;;;;;11.00;90.12;99668.56;5021484;28;20489;-74
2022/09/28 10:03:28;;;;;;;2.85;1.10;;;;;;;11.06;90.21;99666.13;5017102;28;20041;-75
2022/09/28 10:06:04;;;;;;;2.72;1.00;;;;;;;11.13;90.81;99666.88;5023052;28;20041;-74
2022/09/28 10:08:36;;;;;;;3.35;1.00;;;;;;;11.37;90.36;99669.88;5026535;28;20018;-74
2022/09/28 10:11:11;;;;;;;5.27;1.30;;;;;;;11.36;88.65;99659.88;5028318;28;20179;-74
2022/09/28 10:13:37;;;;;;;1.33;1.00;;;;;;;11.51;86.49;99666.97;5024371;28;20278;-74
2022/09/28 10:16:04;;;;;;;1.50;0.93;;;;;;;11.65;86.77;99656.81;5033403;28;20044;-75
2022/09/28 10:18:30;;;;;;;2.47;0.90;;;;;;;11.83;85.23;99660.25;5025507;28;20112;-74
2022/09/28 10:20:55;;;;;;;0.77;0.70;;;;;;;12.12;86.16;99662.75;5028169;28;20151;-74
2022/09/28 10:23:25;;;;;;;2.80;0.80;;;;;;;12.07;85.92;99668.84;5018464;28;20444;-75
2022/09/28 10:25:56;;;;;;;2.47;0.90;;;;;;;12.23;85.14;99668.25;5026643;28;20507;-74
2022/09/28 10:28:49;;;;;;;1.10;0.80;;;;;;;12.08;85.33;99665.63;5021589;28;20543;-74
2022/09/28 10:31:44;;;;;;;2.35;0.90;;;;;;;12.30;87.60;99668.97;5016861;28;20067;-73
2022/09/28 10:34:14;;;;;;;2.95;0.80;;;;;;;12.34;85.60;99668.94;5021221;28;20080;-74
2022/09/28 10:36:48;;;;;;;2.35;0.95;;;;;;;12.66;82.70;99671.31;5021612;28;20465;-74
2022/09/28 10:39:26;;;;;;;4.13;0.80;;;;;;;12.52;82.09;99674.31;5022070;28;20033;-74
2022/09/28 10:41:53;;;;;;;3.45;1.00;;;;;;;12.28;86.09;99679.81;5027181;28;20357;-75
2022/09/28 10:44:20;;;;;;;3.17;1.10;;;;;;;11.88;88.20;99687.84;5023761;28;20481;-75
2022/09/28 10:47:01;;;;;;;1.35;0.82;;;;;;;11.67;92.10;99693.66;5024670;28;20153;-75
2022/09/28 10:49:37;;;;;;;4.80;1.00;;;;;;;11.48;92.51;99687.41;5023478;28;20559;-74
2022/09/28 10:52:03;;;;;;;6.90;1.65;;;;;;;11.49;92.52;99680.59;5023423;28;20533;-75
2022/09/28 10:54:30;;;;;;;2.65;1.20;;;;;;;11.47;97.62;99685.81;5023545;28;20040;-74
2022/09/28 10:56:57;;;;;;;2.92;1.13;;;;;;;11.58;99.85;99680.13;5028154;28;20067;-74
2022/09/28 10:59:29;;;;;;;4.20;1.23;;;;;;;11.44;100.00;99683.81;5025102;28;20053;-74
2022/09/28 11:02:00;;;;;;;5.95;1.02;;;;;;;11.32;99.84;99684.31;5017373;28;20053;-74
2022/09/28 11:04:27;;;;;;;2.78;0.75;;;;;;;11.35;100.00;99683.50;5018987;28;20393;-74
2022/09/28 11:06:57;;;;;;;1.10;0.90;;;;;;;11.28;100.00;99689.16;5019878;28;20060;-74
2022/09/28 11:09:39;;;;;;;3.50;0.85;;;;;;;11.50;100.00;99696.19;5023472;28;20031;-75
2022/09/28 11:12:12;;;;;;;4.80;1.00;;;;;;;11.52;100.00;99682.56;5021441;28;20037;-74
2022/09/28 11:14:39;;;;;;;;;;;;;;;11.61;100.00;99693.28;5022743;28;20061;-74
2022/09/28 11:17:31;;;;;;;1.20;0.90;;;;;;;11.66;100.00;99692.03;5019264;28;20369;-74
2022/09/28 11:19:59;;;;;;;2.75;1.20;;;;;;;11.88;100.00;99684.22;5023659;28;20037;-75
2022/09/28 11:22:30;;;;;;;4.40;1.00;;;;;;;11.78;100.00;99691.53;5016853;28;20164;-74
2022/09/28 11:25:26;;;;;;;8.35;1.25;;;;;;;11.77;100.00;99690.75;5028812;28;20038;-75
2022/09/28 11:27:51;;;;;;;2.47;1.17;;;;;;;11.71;100.00;99695.19;5027623;28;20144;-73
2022/09/28 11:30:22;;;;;;;3.58;1.27;;;;;;;11.71;100.00;99688.81;5021982;28;20108;-74
2022/09/28 11:32:47;;;;;;;2.28;1.15;;;;;;;11.80;100.00;99703.13;5023379;28;20693;-75
2022/09/28 11:35:35;;;;;;;1.10;0.70;;;;;;;11.54;98.27;99701.78;5019512;28;20051;-73
2022/09/28 11:38:04;;;;;;;6.15;1.80;;;;;;;11.60;100.00;99700.13;5014535;28;20088;-74
2022/09/28 11:40:48;;;;;;;5.55;1.90;;;;;;;11.56;100.00;99699.34;5020459;28;20217;-73
2022/09/28 11:43:42;;;;;;;4.45;1.27;;;;;;;11.43;100.00;99701.88;5018054;28;20087;-74
2022/09/28 11:46:32;;;;;;;2.45;1.15;;;;;;;11.40;100.00;99677.44;5018486;28;20176;-74
2022/09/28 11:49:10;;;;;;;2.08;1.25;;;;;;;11.52;100.00;99701.38;5020056;28;20087;-74
2022/09/28 11:51:40;;;;;;;2.40;1.13;;;;;;;11.64;100.00;99688.84;5016019;28;20057;-74